Latest Weather Observations for Cocos Island

IDW60801

Issued at 4:32 am WST Saturday 20 December 2014 (issued every 30 minutes, with the page automatically refreshed every 10 minutes)

About weather observations | Map of weather stations | Latest weather observations for WA | Other Formats
Station Details ID: 200284 Name: COCOS ISLAND AIRPORT Lat: -12.19 Lon: 96.83 Height: 3.0 m
Data from the previous 72 hours. | See also: Recent months at Cocos Island
Date/Time
WST
Temp
°C
App
Temp
°C
Dew
Point
Rel
Hum
%
Delta-T
°C
Wind Press
QNH
hPa
Press
MSL
hPa
Rain
since 9 am
mm
Dir
 
Spd
km/h
Gust
km/h
Spd
kts
Gust
kts
20/04:30am 26.0 26.7 22.3 80 2.5 SE 22 28 12 15 1010.7 - 0.0
20/04:00am 26.2 26.0 22.0 77 2.8 SE 26 33 14 18 1010.9 - 0.0
20/03:30am 26.2 25.9 21.9 77 2.9 SE 26 33 14 18 1011.1 - 0.0
20/03:00am 26.3 26.0 21.8 76 3.0 SE 26 32 14 17 1011.4 - 0.0
20/02:30am 26.3 26.0 21.8 76 3.0 SE 26 33 14 18 1011.6 - 0.0
20/02:00am 26.3 25.6 21.8 76 3.0 SE 28 35 15 19 1012.1 1012.1 0.0
20/01:30am 26.3 25.9 22.4 79 2.6 SE 28 35 15 19 1012.7 - 0.0
20/01:00am 26.3 25.7 22.0 77 2.9 SE 28 35 15 19 1013.0 - 0.0
20/12:30am 26.3 25.5 22.3 78 2.7 SE 30 39 16 21 1013.3 - 0.0
20/12:00am 26.4 26.7 22.9 81 2.4 ESE 26 35 14 19 1013.4 - 0.0
 
Date/Time
WST
Temp
°C
App
Temp
°C
Dew
Point
Rel
Hum
%
Delta-T
°C
Wind Press
QNH
hPa
Press
MSL
hPa
Rain
since 9 am
mm
Dir
 
Spd
km/h
Gust
km/h
Spd
kts
Gust
kts
19/11:30pm 26.4 25.7 22.5 79 2.6 SE 30 37 16 20 1013.5 - 0.0
19/11:00pm 26.4 26.0 23.0 81 2.3 SE 30 35 16 19 1013.4 1013.4 0.0
19/10:30pm 26.6 26.2 22.4 78 2.8 SE 28 33 15 18 1013.2 - 0.0
19/10:00pm 26.7 26.1 22.7 79 2.7 SE 30 37 16 20 1013.0 - 0.0
19/09:30pm 26.8 26.5 22.5 77 2.9 SE 28 35 15 19 1012.9 - 0.0
19/09:00pm 26.8 27.0 22.8 79 2.7 SE 26 35 14 19 1012.6 - 0.0
19/08:30pm 26.9 27.0 22.5 77 3.0 SE 26 37 14 20 1012.4 - 0.0
19/08:00pm 27.1 27.7 23.4 80 2.5 SE 26 33 14 18 1012.0 1012.0 0.0
19/07:30pm 27.0 27.1 23.2 80 2.6 SE 28 37 15 20 1011.6 - 0.0
19/07:00pm 27.2 27.4 23.4 80 2.6 SE 28 35 15 19 1011.2 - 0.0
19/06:30pm 27.7 27.7 23.0 75 3.2 SE 28 35 15 19 1010.9 - 0.0
19/06:00pm 27.9 27.8 22.9 74 3.4 SE 28 35 15 19 1010.7 - 0.0
19/05:30pm 28.5 28.5 23.1 72 3.7 SE 28 35 15 19 1010.7 - 0.0
19/05:00pm 28.1 28.3 22.8 73 3.6 SE 26 35 14 19 1010.8 1010.8 0.0
19/04:30pm 28.5 29.2 22.9 71 3.8 SE 24 33 13 18 1011.0 - 0.0
19/04:00pm 28.5 29.2 22.9 71 3.8 SE 24 32 13 17 1011.4 - 0.0
19/03:30pm 28.3 28.3 22.4 70 4.0 SE 26 30 14 16 1011.7 - 0.0
19/03:00pm 29.1 30.2 23.6 72 3.8 SE 24 32 13 17 1011.9 - 0.0
19/02:30pm 28.6 29.2 23.5 74 3.5 ESE 26 35 14 19 1012.2 - 0.0
19/02:00pm 29.0 29.7 23.6 72 3.7 SE 26 35 14 19 1012.3 1012.3 0.0
19/01:30pm 28.8 29.0 23.4 72 3.7 SE 28 35 15 19 1012.5 - 0.0
19/01:00pm 29.0 29.6 24.1 75 3.4 SE 28 35 15 19 1012.7 - 0.0
19/12:30pm 28.6 29.0 23.7 75 3.4 SE 28 33 15 18 1013.0 - 0.0
19/12:00pm 28.8 29.5 23.6 73 3.6 ESE 26 35 14 19 1012.9 - 0.0
19/11:30am 29.0 29.7 23.6 72 3.7 ESE 26 32 14 17 1013.0 - 0.0
19/11:00am 28.5 29.3 23.2 73 3.6 ESE 24 35 13 19 1013.0 1013.0 0.8
19/10:30am 28.3 29.1 23.2 74 3.5 ESE 24 32 13 17 1013.0 - 0.8
19/10:00am 27.9 28.2 22.9 74 3.4 ESE 26 35 14 19 1012.9 - 0.8
19/09:30am 27.7 27.5 22.7 74 3.4 SE 28 35 15 19 1012.8 - 0.8
19/09:00am 27.5 28.0 22.6 74 3.3 SE 24 33 13 18 1012.5 - 0.8
19/08:30am 27.1 26.6 22.2 74 3.3 SE 28 35 15 19 1012.3 - 0.8
19/08:00am 26.6 27.0 22.4 78 2.8 SE 24 30 13 16 1012.1 1012.1 0.8
19/07:30am 26.3 26.7 22.4 79 2.6 SE 24 30 13 16 1011.7 - 0.8
19/07:00am 26.2 26.1 22.2 78 2.7 SE 26 32 14 17 1011.4 - 0.8
19/06:30am 26.1 25.2 20.6 71 3.6 SE 26 35 14 19 1011.1 - 0.8
19/06:00am 26.1 26.4 21.6 76 3.0 SSE 22 30 12 16 1010.8 - 0.8
19/05:30am 26.4 26.5 21.8 76 3.1 SE 24 32 13 17 1010.6 - 0.6
19/05:00am 26.4 26.6 22.1 77 2.9 SE 24 32 13 17 1010.6 1010.6 0.6
19/04:30am 26.4 26.5 21.9 76 3.0 SE 24 30 13 16 1010.7 - 0.6
19/04:00am 26.3 26.6 22.3 78 2.7 SE 24 32 13 17 1010.9 - 0.6
19/03:30am 26.0 26.0 21.6 76 2.9 SE 24 35 13 19 1011.2 - 0.6
19/03:00am 25.7 25.3 22.3 81 2.3 SE 28 37 15 20 1011.3 - 0.6
19/02:30am 26.4 27.1 22.9 81 2.4 SE 24 30 13 16 1011.4 - 0.6
19/02:00am 26.4 26.9 22.7 80 2.5 SE 24 33 13 18 1011.6 1011.6 0.6
19/01:30am 26.4 26.8 22.5 79 2.6 SE 24 32 13 17 1011.8 - 0.6
19/01:00am 26.4 27.2 22.5 79 2.6 SE 22 30 12 16 1012.0 - 0.6
19/12:30am 26.5 26.8 22.3 78 2.8 SE 24 32 13 17 1012.2 - 0.6
19/12:00am 26.5 26.4 22.2 77 2.9 SE 26 35 14 19 1012.3 - 0.6
 
Date/Time
WST
Temp
°C
App
Temp
°C
Dew
Point
Rel
Hum
%
Delta-T
°C
Wind Press
QNH
hPa
Press
MSL
hPa
Rain
since 9 am
mm
Dir
 
Spd
km/h
Gust
km/h
Spd
kts
Gust
kts
18/11:30pm 26.5 26.4 22.3 78 2.8 SE 26 35 14 19 1012.1 - 0.6
18/11:00pm 26.5 26.4 22.3 78 2.8 SE 26 35 14 19 1011.9 1011.9 0.6
18/10:30pm 26.7 26.2 22.2 76 3.0 SE 28 37 15 20 1011.7 - 0.6
18/10:00pm 26.6 27.0 23.1 81 2.4 SE 26 35 14 19 1011.7 - 0.6
18/09:30pm 26.5 27.0 22.7 79 2.6 SSE 24 33 13 18 1011.5 - 0.6
18/09:00pm 25.8 25.9 21.9 79 2.6 SSE 24 35 13 19 1011.2 - 0.6
18/08:30pm 26.2 27.5 23.4 84 1.9 SSE 22 32 12 17 1011.0 - 0.6
18/08:17pm 25.2 26.1 23.4 90 1.2 SSE 24 30 13 16 1011.0 - 0.6
18/08:06pm 25.4 25.7 23.6 90 1.2 SE 28 37 15 20 1010.9 - 0.6
18/08:00pm 25.6 26.0 23.8 90 1.2 SE 28 37 15 20 1010.8 1010.8 0.6
18/07:30pm 26.0 26.2 23.5 86 1.7 SE 28 35 15 19 1010.3 - 0.6
18/07:14pm 25.6 26.9 24.0 91 1.1 SE 24 35 13 19 1010.1 - 0.6
18/07:00pm 25.5 26.0 24.0 91 1.0 SE 28 43 15 23 1009.9 - 0.6
18/06:30pm 26.2 27.1 23.4 84 1.9 SSE 24 33 13 18 1009.6 - 0.6
18/06:00pm 27.5 27.8 22.9 76 3.1 SE 26 35 14 19 1009.3 - 0.6
18/05:30pm 26.1 25.8 24.2 89 1.3 SE 33 43 18 23 1009.4 - 0.6
18/05:00pm 27.9 28.3 23.2 75 3.2 SE 26 33 14 18 1009.4 1009.4 0.4
18/04:30pm 27.3 27.9 23.5 80 2.6 SE 26 32 14 17 1009.4 - 0.4
18/04:00pm 27.0 28.3 24.1 84 2.0 SE 24 32 13 17 1009.5 - 0.4
18/03:49pm 26.3 27.4 24.4 89 1.3 SE 26 32 14 17 1009.6 - 0.4
18/03:30pm 25.9 26.6 24.3 91 1.1 SE 28 37 15 20 1009.9 - 0.4
18/03:00pm 26.2 27.8 24.5 90 1.2 E 24 39 13 21 1010.2 - 0.0
18/02:54pm 27.1 28.5 24.2 84 2.0 SE 24 39 13 21 1010.3 - 0.0
18/02:30pm 27.5 28.6 24.3 83 2.2 SE 26 33 14 18 1010.6 - 0.0
18/02:00pm 27.3 28.7 23.5 80 2.6 SE 22 28 12 15 1010.9 1010.9 0.0
18/01:30pm 28.6 30.1 23.7 75 3.4 SE 22 28 12 15 1011.2 - 0.0
18/01:00pm 28.0 29.5 23.0 74 3.4 SE 20 28 11 15 1011.5 - 0.0
18/12:30pm 27.3 27.5 23.5 80 2.6 ESE 28 35 15 19 1011.7 - 0.0
18/12:00pm 28.6 29.7 23.7 75 3.4 SE 24 33 13 18 1011.9 - 0.0
18/11:30am 28.3 28.5 23.5 75 3.3 ESE 28 33 15 18 1012.1 - 0.0
18/11:00am 27.8 28.7 23.4 77 3.0 ESE 24 33 13 18 1012.1 1012.1 2.2
18/10:30am 28.4 29.3 23.3 74 3.5 SE 24 32 13 17 1012.2 - 2.0
18/10:00am 27.6 28.4 23.2 77 3.0 ESE 24 30 13 16 1012.1 - 2.0
18/09:30am 27.5 28.6 23.6 79 2.7 SE 24 32 13 17 1011.6 - 2.0
18/09:00am 27.1 27.3 23.4 80 2.5 SE 28 35 15 19 1011.4 - 2.0
18/08:30am 26.3 27.2 23.4 84 2.0 SE 24 32 13 17 1011.0 - 2.0
18/08:00am 26.0 26.4 23.1 84 2.0 SE 26 35 14 19 1010.9 1010.9 2.0
18/07:30am 26.1 26.4 23.0 83 2.1 SE 26 32 14 17 1010.6 - 2.0
18/07:00am 26.0 26.9 23.4 85 1.8 SE 24 33 13 18 1010.1 - 2.0
18/06:30am 26.0 26.8 23.1 84 2.0 SE 24 32 13 17 1009.7 - 2.0
18/06:00am 26.1 27.4 23.3 84 1.9 SE 22 30 12 16 1009.5 - 2.0
18/05:30am 25.9 27.2 23.3 85 1.8 SE 22 28 12 15 1009.3 - 2.0
18/05:00am 25.9 27.6 23.4 86 1.7 SE 20 26 11 14 1009.2 1009.2 2.0
18/04:30am 25.9 26.8 23.4 86 1.7 SE 24 32 13 17 1009.2 - 2.0
18/04:09am 25.7 26.6 23.4 87 1.6 ESE 24 30 13 16 1009.2 - 2.0
18/04:00am 25.4 27.7 23.5 89 1.3 ESE 17 32 9 17 1009.3 - 2.0
18/03:42am 25.1 27.0 23.8 92 0.9 ESE 20 24 11 13 1009.5 - 1.4
18/03:37am 25.1 26.5 23.6 91 1.0 SE 22 30 12 16 1009.6 - 1.4
18/03:30am 25.4 27.4 23.6 90 1.2 ESE 19 26 10 14 1009.6 - 1.2
18/03:27am 25.4 27.9 23.8 91 1.1 ESE 17 26 9 14 1009.7 - 1.2
18/03:00am 26.0 26.9 23.4 85 1.8 ESE 24 30 13 16 1009.9 - 1.2
18/02:30am 26.0 27.4 23.5 86 1.7 SE 22 28 12 15 1010.0 - 1.2
18/02:00am 26.1 27.7 23.9 88 1.5 ESE 22 28 12 15 1010.3 1010.3 1.2
18/01:30am 26.2 28.2 23.9 87 1.6 ESE 20 26 11 14 1010.7 - 1.2
18/01:00am 25.9 27.2 23.4 86 1.7 ESE 22 33 12 18 1011.1 - 1.2
18/12:30am 26.4 27.6 23.8 85 1.8 ESE 24 28 13 15 1011.3 - 1.2
18/12:00am 26.3 27.3 23.5 84 1.9 ESE 24 33 13 18 1011.6 - 1.2
 
Date/Time
WST
Temp
°C
App
Temp
°C
Dew
Point
Rel
Hum
%
Delta-T
°C
Wind Press
QNH
hPa
Press
MSL
hPa
Rain
since 9 am
mm
Dir
 
Spd
km/h
Gust
km/h
Spd
kts
Gust
kts
17/11:30pm 26.4 27.6 23.2 82 2.2 ESE 22 30 12 16 1011.6 - 1.2
17/11:00pm 26.4 28.4 23.9 86 1.7 ESE 20 28 11 15 1011.6 1011.6 1.2
17/10:30pm 26.3 28.5 24.3 89 1.4 ESE 20 30 11 16 1011.4 - 1.2
17/10:00pm 26.5 28.2 23.4 83 2.1 SE 20 28 11 15 1011.1 - 1.2
17/09:30pm 26.6 27.8 23.2 81 2.3 SE 22 30 12 16 1010.9 - 1.2
17/09:00pm 26.6 27.0 23.2 81 2.3 SE 26 33 14 18 1010.5 - 1.2
17/08:30pm 26.5 27.7 23.9 85 1.8 ESE 24 30 13 16 1010.1 - 1.2
17/08:00pm 26.8 27.9 23.6 82 2.2 ESE 24 30 13 16 1009.7 1009.7 1.2
17/07:30pm 27.1 28.5 23.6 81 2.4 ESE 22 28 12 15 1009.3 - 1.2
17/07:00pm 27.4 29.8 24.2 83 2.2 ESE 19 24 10 13 1009.0 - 1.2
17/06:30pm 27.0 29.0 23.6 81 2.3 SE 19 24 10 13 1008.9 - 1.2
17/06:00pm 26.1 30.4 24.2 89 1.3 S 9 13 5 7 1008.8 - 0.8
17/05:57pm 26.4 30.8 24.4 89 1.4 SE 9 15 5 8 1008.8 - 0.8
17/05:35pm 26.2 28.1 23.7 86 1.7 SE 20 32 11 17 1008.9 - 0.4
17/05:30pm 28.2 30.5 23.5 75 3.2 SE 17 24 9 13 1008.8 - 0.0
17/05:00pm 27.8 29.4 23.3 76 3.1 SE 20 26 11 14 1008.7 1008.7 0.0
17/04:30pm 28.4 29.1 23.6 75 3.3 SE 26 32 14 17 1008.6 - 0.0
17/04:00pm 27.9 29.4 23.7 78 2.9 ESE 22 28 12 15 1008.7 - 0.0
17/03:30pm 29.0 31.1 24.1 75 3.4 SE 20 26 11 14 1009.1 - 0.0
17/03:00pm 28.9 30.3 22.9 70 4.1 ESE 20 26 11 14 1009.2 - 0.0
17/02:30pm 28.0 29.2 23.2 75 3.3 SE 22 28 12 15 1009.4 - 0.0
17/02:00pm 29.3 30.7 23.6 71 3.9 ESE 22 30 12 16 1009.6 1009.6 0.0
17/01:30pm 28.9 29.2 22.9 70 4.1 ESE 26 33 14 18 1009.8 - 0.0
17/01:00pm 28.9 30.1 23.8 74 3.5 ESE 24 32 13 17 1009.9 - 0.0
17/12:30pm 28.8 30.3 23.7 74 3.5 ESE 22 30 12 16 1010.2 - 0.0
17/12:00pm 28.5 29.6 23.6 75 3.4 ESE 24 32 13 17 1010.5 - 0.0
17/11:30am 28.1 29.2 23.0 74 3.5 ESE 22 30 12 16 1010.7 - 0.0
17/11:00am 28.2 29.7 23.1 74 3.5 SE 20 26 11 14 1010.9 1010.9 0.0
17/10:30am 27.6 28.4 23.1 76 3.1 ESE 24 28 13 15 1011.0 - 0.0
17/10:00am 27.8 28.6 23.1 75 3.2 ESE 24 30 13 16 1010.8 - 0.0
17/09:30am 27.3 27.4 22.6 75 3.2 ESE 26 32 14 17 1010.7 - 0.0
17/09:00am 27.2 28.0 23.2 79 2.7 ESE 24 30 13 16 1010.2 - 0.0
17/08:30am 26.5 27.6 23.1 81 2.3 SE 22 28 12 15 1009.9 - 0.0
17/08:00am 26.1 27.0 22.7 81 2.3 ESE 22 28 12 15 1009.7 1009.7 0.0
17/07:30am 25.9 26.8 22.6 82 2.2 SE 22 28 12 15 1009.5 - 0.0
17/07:00am 25.8 26.2 22.5 82 2.2 ESE 24 30 13 16 1009.1 - 0.0
17/06:30am 25.8 26.6 22.4 81 2.3 SE 22 28 12 15 1008.7 - 0.0

Other Formats:

Comma delimited format used in spreadsheet applications
http://www.bom.gov.au/fwo/IDW60801/IDW60801.96996.axf

JavaScript Object Notation format (JSON) in row-major order
http://www.bom.gov.au/fwo/IDW60801/IDW60801.96996.json